sensor_id;sensor_type;location;lat;lon;timestamp;P1;durP1;ratioP1;P2;durP2;ratioP2
17650;SDS011;26663;59.302;18.082;2024-01-27T00:00:52;3.43;;;2.20;;
17650;SDS011;26663;59.302;18.082;2024-01-27T00:03:56;2.03;;;1.90;;
17650;SDS011;26663;59.302;18.082;2024-01-27T00:07:01;2.50;;;2.30;;
17650;SDS011;26663;59.302;18.082;2024-01-27T00:10:05;2.17;;;1.93;;
17650;SDS011;26663;59.302;18.082;2024-01-27T00:13:11;2.40;;;2.30;;
17650;SDS011;26663;59.302;18.082;2024-01-27T00:16:16;1.90;;;1.90;;
17650;SDS011;26663;59.302;18.082;2024-01-27T00:19:20;2.47;;;2.37;;
17650;SDS011;26663;59.302;18.082;2024-01-27T00:22:24;2.33;;;2.23;;
17650;SDS011;26663;59.302;18.082;2024-01-27T00:25:28;2.50;;;2.40;;
17650;SDS011;26663;59.302;18.082;2024-01-27T00:28:33;2.70;;;2.50;;
17650;SDS011;26663;59.302;18.082;2024-01-27T00:31:37;2.23;;;2.23;;
17650;SDS011;26663;59.302;18.082;2024-01-27T00:34:41;2.40;;;2.30;;
17650;SDS011;26663;59.302;18.082;2024-01-27T00:37:45;2.87;;;2.73;;
17650;SDS011;26663;59.302;18.082;2024-01-27T00:40:49;6.77;;;3.77;;
17650;SDS011;26663;59.302;18.082;2024-01-27T00:43:55;15.23;;;6.30;;
17650;SDS011;26663;59.302;18.082;2024-01-27T00:46:59;17.80;;;7.03;;
17650;SDS011;26663;59.302;18.082;2024-01-27T00:50:03;18.10;;;6.27;;
17650;SDS011;26663;59.302;18.082;2024-01-27T00:53:07;10.93;;;4.90;;
17650;SDS011;26663;59.302;18.082;2024-01-27T00:56:11;12.37;;;6.17;;
17650;SDS011;26663;59.302;18.082;2024-01-27T00:59:17;14.40;;;6.07;;
17650;SDS011;26663;59.302;18.082;2024-01-27T01:02:21;15.87;;;6.20;;
17650;SDS011;26663;59.302;18.082;2024-01-27T01:05:25;11.87;;;6.10;;
17650;SDS011;26663;59.302;18.082;2024-01-27T01:08:29;9.30;;;4.90;;
17650;SDS011;26663;59.302;18.082;2024-01-27T01:11:33;6.63;;;4.10;;
17650;SDS011;26663;59.302;18.082;2024-01-27T01:14:42;3.60;;;3.30;;
17650;SDS011;26663;59.302;18.082;2024-01-27T01:17:47;3.37;;;3.13;;
17650;SDS011;26663;59.302;18.082;2024-01-27T01:20:51;3.57;;;2.90;;
17650;SDS011;26663;59.302;18.082;2024-01-27T01:23:55;3.10;;;2.90;;
17650;SDS011;26663;59.302;18.082;2024-01-27T01:26:59;3.07;;;2.67;;
17650;SDS011;26663;59.302;18.082;2024-01-27T01:30:05;2.60;;;2.50;;
17650;SDS011;26663;59.302;18.082;2024-01-27T01:33:11;3.20;;;3.00;;
17650;SDS011;26663;59.302;18.082;2024-01-27T01:36:16;2.70;;;2.60;;
17650;SDS011;26663;59.302;18.082;2024-01-27T01:39:20;3.13;;;3.03;;
17650;SDS011;26663;59.302;18.082;2024-01-27T01:42:24;3.60;;;3.20;;
17650;SDS011;26663;59.302;18.082;2024-01-27T01:45:29;2.83;;;2.73;;
17650;SDS011;26663;59.302;18.082;2024-01-27T01:48:34;3.83;;;3.53;;
17650;SDS011;26663;59.302;18.082;2024-01-27T01:51:38;3.53;;;3.33;;
17650;SDS011;26663;59.302;18.082;2024-01-27T01:54:42;4.37;;;3.53;;
17650;SDS011;26663;59.302;18.082;2024-01-27T01:57:46;4.50;;;3.60;;
17650;SDS011;26663;59.302;18.082;2024-01-27T02:00:52;3.73;;;3.43;;
17650;SDS011;26663;59.302;18.082;2024-01-27T02:03:56;4.60;;;4.20;;
17650;SDS011;26663;59.302;18.082;2024-01-27T02:07:01;10.53;;;4.93;;
17650;SDS011;26663;59.302;18.082;2024-01-27T02:10:06;9.07;;;6.10;;
17650;SDS011;26663;59.302;18.082;2024-01-27T02:13:15;7.50;;;5.30;;
17650;SDS011;26663;59.302;18.082;2024-01-27T02:16:23;4.77;;;4.37;;
17650;SDS011;26663;59.302;18.082;2024-01-27T02:19:27;4.90;;;4.40;;
17650;SDS011;26663;59.302;18.082;2024-01-27T02:22:31;6.50;;;4.37;;
17650;SDS011;26663;59.302;18.082;2024-01-27T02:25:36;4.33;;;4.00;;
17650;SDS011;26663;59.302;18.082;2024-01-27T02:28:40;4.57;;;4.17;;
17650;SDS011;26663;59.302;18.082;2024-01-27T02:31:44;4.40;;;4.00;;
17650;SDS011;26663;59.302;18.082;2024-01-27T02:34:48;4.90;;;4.43;;
17650;SDS011;26663;59.302;18.082;2024-01-27T02:37:52;4.37;;;4.07;;
17650;SDS011;26663;59.302;18.082;2024-01-27T02:40:59;4.40;;;4.10;;
17650;SDS011;26663;59.302;18.082;2024-01-27T02:44:03;6.20;;;4.80;;
17650;SDS011;26663;59.302;18.082;2024-01-27T02:47:07;6.27;;;4.80;;
17650;SDS011;26663;59.302;18.082;2024-01-27T02:50:11;4.23;;;3.93;;
17650;SDS011;26663;59.302;18.082;2024-01-27T02:53:15;7.63;;;4.13;;
17650;SDS011;26663;59.302;18.082;2024-01-27T02:56:21;12.90;;;6.00;;
17650;SDS011;26663;59.302;18.082;2024-01-27T02:59:25;7.57;;;5.63;;
17650;SDS011;26663;59.302;18.082;2024-01-27T03:02:28;16.20;;;6.77;;
17650;SDS011;26663;59.302;18.082;2024-01-27T03:05:32;13.50;;;6.57;;
17650;SDS011;26663;59.302;18.082;2024-01-27T03:08:36;10.23;;;4.60;;
17650;SDS011;26663;59.302;18.082;2024-01-27T03:11:42;6.63;;;4.17;;
17650;SDS011;26663;59.302;18.082;2024-01-27T03:14:46;7.17;;;3.63;;
17650;SDS011;26663;59.302;18.082;2024-01-27T03:17:51;6.30;;;3.57;;
17650;SDS011;26663;59.302;18.082;2024-01-27T03:20:56;2.20;;;2.10;;
17650;SDS011;26663;59.302;18.082;2024-01-27T03:24:00;2.07;;;1.87;;
17650;SDS011;26663;59.302;18.082;2024-01-27T03:27:05;1.67;;;1.67;;
17650;SDS011;26663;59.302;18.082;2024-01-27T03:30:09;2.10;;;2.00;;
17650;SDS011;26663;59.302;18.082;2024-01-27T03:33:13;4.07;;;2.83;;
17650;SDS011;26663;59.302;18.082;2024-01-27T03:36:17;3.77;;;3.47;;
17650;SDS011;26663;59.302;18.082;2024-01-27T03:39:21;4.17;;;3.13;;
17650;SDS011;26663;59.302;18.082;2024-01-27T03:42:27;4.27;;;2.93;;
17650;SDS011;26663;59.302;18.082;2024-01-27T03:45:31;8.27;;;3.70;;
17650;SDS011;26663;59.302;18.082;2024-01-27T03:48:35;2.57;;;2.33;;
17650;SDS011;26663;59.302;18.082;2024-01-27T03:51:40;3.43;;;2.90;;
17650;SDS011;26663;59.302;18.082;2024-01-27T03:54:44;4.87;;;3.67;;
17650;SDS011;26663;59.302;18.082;2024-01-27T03:57:49;2.93;;;2.60;;
17650;SDS011;26663;59.302;18.082;2024-01-27T04:00:53;4.47;;;3.03;;
17650;SDS011;26663;59.302;18.082;2024-01-27T04:03:57;6.13;;;3.20;;
17650;SDS011;26663;59.302;18.082;2024-01-27T04:07:01;6.70;;;3.47;;
17650;SDS011;26663;59.302;18.082;2024-01-27T04:10:06;4.00;;;2.10;;
17650;SDS011;26663;59.302;18.082;2024-01-27T04:13:12;1.60;;;1.60;;
17650;SDS011;26663;59.302;18.082;2024-01-27T04:16:16;4.47;;;2.10;;
17650;SDS011;26663;59.302;18.082;2024-01-27T04:19:20;1.97;;;1.80;;
17650;SDS011;26663;59.302;18.082;2024-01-27T04:22:24;1.40;;;1.40;;
17650;SDS011;26663;59.302;18.082;2024-01-27T04:25:28;1.40;;;1.40;;
17650;SDS011;26663;59.302;18.082;2024-01-27T04:28:34;1.43;;;1.43;;
17650;SDS011;26663;59.302;18.082;2024-01-27T04:31:39;1.30;;;1.30;;
17650;SDS011;26663;59.302;18.082;2024-01-27T04:34:43;1.37;;;1.37;;
17650;SDS011;26663;59.302;18.082;2024-01-27T04:37:47;1.50;;;1.50;;
17650;SDS011;26663;59.302;18.082;2024-01-27T04:40:51;1.70;;;1.70;;
17650;SDS011;26663;59.302;18.082;2024-01-27T04:43:57;1.37;;;1.37;;
17650;SDS011;26663;59.302;18.082;2024-01-27T04:47:01;1.40;;;1.40;;
17650;SDS011;26663;59.302;18.082;2024-01-27T04:50:05;1.30;;;1.30;;
17650;SDS011;26663;59.302;18.082;2024-01-27T04:53:10;1.40;;;1.40;;
17650;SDS011;26663;59.302;18.082;2024-01-27T04:56:14;1.40;;;1.40;;
17650;SDS011;26663;59.302;18.082;2024-01-27T04:59:19;1.40;;;1.40;;
17650;SDS011;26663;59.302;18.082;2024-01-27T05:02:23;1.40;;;1.40;;
17650;SDS011;26663;59.302;18.082;2024-01-27T05:05:27;1.70;;;1.70;;
17650;SDS011;26663;59.302;18.082;2024-01-27T05:08:34;1.40;;;1.37;;
17650;SDS011;26663;59.302;18.082;2024-01-27T05:11:38;1.40;;;1.40;;
17650;SDS011;26663;59.302;18.082;2024-01-27T05:14:44;1.50;;;1.40;;
17650;SDS011;26663;59.302;18.082;2024-01-27T05:17:48;1.47;;;1.47;;
17650;SDS011;26663;59.302;18.082;2024-01-27T05:20:53;1.40;;;1.40;;
17650;SDS011;26663;59.302;18.082;2024-01-27T05:23:57;1.57;;;1.57;;
17650;SDS011;26663;59.302;18.082;2024-01-27T05:27:01;1.30;;;1.30;;
17650;SDS011;26663;59.302;18.082;2024-01-27T05:30:07;1.23;;;1.23;;
17650;SDS011;26663;59.302;18.082;2024-01-27T05:33:12;1.20;;;1.20;;
17650;SDS011;26663;59.302;18.082;2024-01-27T05:36:16;1.10;;;1.10;;
17650;SDS011;26663;59.302;18.082;2024-01-27T05:39:20;1.00;;;1.00;;
17650;SDS011;26663;59.302;18.082;2024-01-27T05:42:24;1.20;;;1.20;;
17650;SDS011;26663;59.302;18.082;2024-01-27T05:45:30;1.30;;;1.30;;
17650;SDS011;26663;59.302;18.082;2024-01-27T05:48:34;1.30;;;1.30;;
17650;SDS011;26663;59.302;18.082;2024-01-27T05:51:38;1.20;;;1.20;;
17650;SDS011;26663;59.302;18.082;2024-01-27T05:54:42;1.07;;;1.07;;
17650;SDS011;26663;59.302;18.082;2024-01-27T05:57:46;1.00;;;1.00;;
17650;SDS011;26663;59.302;18.082;2024-01-27T06:00:52;0.90;;;0.90;;
17650;SDS011;26663;59.302;18.082;2024-01-27T06:03:56;1.13;;;1.10;;
17650;SDS011;26663;59.302;18.082;2024-01-27T06:07:01;1.00;;;1.00;;
17650;SDS011;26663;59.302;18.082;2024-01-27T06:10:06;1.30;;;1.30;;
17650;SDS011;26663;59.302;18.082;2024-01-27T06:13:11;0.90;;;0.90;;
17650;SDS011;26663;59.302;18.082;2024-01-27T06:16:17;1.10;;;1.10;;
17650;SDS011;26663;59.302;18.082;2024-01-27T06:19:21;1.47;;;1.20;;
17650;SDS011;26663;59.302;18.082;2024-01-27T06:22:25;1.00;;;1.00;;
17650;SDS011;26663;59.302;18.082;2024-01-27T06:25:29;1.23;;;1.23;;
17650;SDS011;26663;59.302;18.082;2024-01-27T06:28:33;1.23;;;1.23;;
17650;SDS011;26663;59.302;18.082;2024-01-27T06:31:39;1.00;;;1.00;;
17650;SDS011;26663;59.302;18.082;2024-01-27T06:34:43;1.07;;;1.07;;
17650;SDS011;26663;59.302;18.082;2024-01-27T06:37:47;1.00;;;1.00;;
17650;SDS011;26663;59.302;18.082;2024-01-27T06:40:52;1.17;;;1.17;;
17650;SDS011;26663;59.302;18.082;2024-01-27T06:43:56;1.27;;;1.20;;
17650;SDS011;26663;59.302;18.082;2024-01-27T06:47:02;1.17;;;1.17;;
17650;SDS011;26663;59.302;18.082;2024-01-27T06:50:07;1.10;;;1.10;;
17650;SDS011;26663;59.302;18.082;2024-01-27T06:53:11;1.13;;;1.13;;
17650;SDS011;26663;59.302;18.082;2024-01-27T06:56:15;1.17;;;1.17;;
17650;SDS011;26663;59.302;18.082;2024-01-27T06:59:20;1.17;;;1.17;;
17650;SDS011;26663;59.302;18.082;2024-01-27T07:02:25;1.00;;;1.00;;
17650;SDS011;26663;59.302;18.082;2024-01-27T07:05:29;1.10;;;1.10;;
17650;SDS011;26663;59.302;18.082;2024-01-27T07:08:35;0.87;;;0.87;;
17650;SDS011;26663;59.302;18.082;2024-01-27T07:11:40;1.17;;;1.13;;
17650;SDS011;26663;59.302;18.082;2024-01-27T07:14:44;1.00;;;1.00;;
17650;SDS011;26663;59.302;18.082;2024-01-27T07:17:49;1.10;;;1.10;;
17650;SDS011;26663;59.302;18.082;2024-01-27T07:20:53;1.00;;;1.00;;
17650;SDS011;26663;59.302;18.082;2024-01-27T07:23:58;1.10;;;1.10;;
17650;SDS011;26663;59.302;18.082;2024-01-27T07:27:02;1.73;;;1.40;;
17650;SDS011;26663;59.302;18.082;2024-01-27T07:30:07;1.40;;;1.40;;
17650;SDS011;26663;59.302;18.082;2024-01-27T07:33:14;1.23;;;1.23;;
17650;SDS011;26663;59.302;18.082;2024-01-27T07:36:18;1.20;;;1.10;;
17650;SDS011;26663;59.302;18.082;2024-01-27T07:39:22;1.20;;;1.20;;
17650;SDS011;26663;59.302;18.082;2024-01-27T07:42:26;1.20;;;1.10;;
17650;SDS011;26663;59.302;18.082;2024-01-27T07:45:30;1.43;;;1.33;;
17650;SDS011;26663;59.302;18.082;2024-01-27T07:48:36;1.20;;;1.20;;
17650;SDS011;26663;59.302;18.082;2024-01-27T07:51:40;2.23;;;1.20;;
17650;SDS011;26663;59.302;18.082;2024-01-27T07:54:44;1.20;;;1.20;;
17650;SDS011;26663;59.302;18.082;2024-01-27T07:57:48;2.83;;;1.40;;
17650;SDS011;26663;59.302;18.082;2024-01-27T08:00:52;1.30;;;1.30;;
17650;SDS011;26663;59.302;18.082;2024-01-27T08:03:58;1.13;;;1.13;;
17650;SDS011;26663;59.302;18.082;2024-01-27T08:07:02;1.93;;;1.17;;
17650;SDS011;26663;59.302;18.082;2024-01-27T08:10:12;1.30;;;1.30;;
17650;SDS011;26663;59.302;18.082;2024-01-27T08:13:15;1.20;;;1.20;;
17650;SDS011;26663;59.302;18.082;2024-01-27T08:16:19;2.60;;;1.27;;
17650;SDS011;26663;59.302;18.082;2024-01-27T08:19:26;2.50;;;1.30;;
17650;SDS011;26663;59.302;18.082;2024-01-27T08:22:30;1.33;;;1.03;;
17650;SDS011;26663;59.302;18.082;2024-01-27T08:25:34;1.43;;;1.40;;
17650;SDS011;26663;59.302;18.082;2024-01-27T08:28:38;1.40;;;1.30;;
17650;SDS011;26663;59.302;18.082;2024-01-27T08:31:42;1.30;;;1.30;;
17650;SDS011;26663;59.302;18.082;2024-01-27T08:34:47;2.00;;;1.20;;
17650;SDS011;26663;59.302;18.082;2024-01-27T08:37:51;1.70;;;1.40;;
17650;SDS011;26663;59.302;18.082;2024-01-27T08:40:55;2.90;;;1.30;;
17650;SDS011;26663;59.302;18.082;2024-01-27T08:43:59;2.00;;;1.50;;
17650;SDS011;26663;59.302;18.082;2024-01-27T08:47:03;2.03;;;1.70;;
17650;SDS011;26663;59.302;18.082;2024-01-27T08:50:11;2.53;;;1.30;;
17650;SDS011;26663;59.302;18.082;2024-01-27T08:53:15;1.40;;;1.40;;
17650;SDS011;26663;59.302;18.082;2024-01-27T08:56:19;2.23;;;1.50;;
17650;SDS011;26663;59.302;18.082;2024-01-27T08:59:23;2.60;;;1.70;;
17650;SDS011;26663;59.302;18.082;2024-01-27T09:02:27;1.53;;;1.43;;
17650;SDS011;26663;59.302;18.082;2024-01-27T09:05:32;1.60;;;1.50;;
17650;SDS011;26663;59.302;18.082;2024-01-27T09:08:36;7.10;;;1.93;;
17650;SDS011;26663;59.302;18.082;2024-01-27T09:11:40;4.10;;;1.40;;
17650;SDS011;26663;59.302;18.082;2024-01-27T09:14:44;3.03;;;1.60;;
17650;SDS011;26663;59.302;18.082;2024-01-27T09:17:48;4.93;;;1.57;;
17650;SDS011;26663;59.302;18.082;2024-01-27T09:20:54;3.60;;;1.70;;
17650;SDS011;26663;59.302;18.082;2024-01-27T09:23:58;1.80;;;1.20;;
17650;SDS011;26663;59.302;18.082;2024-01-27T09:27:03;2.60;;;1.50;;
17650;SDS011;26663;59.302;18.082;2024-01-27T09:30:08;4.10;;;1.83;;
17650;SDS011;26663;59.302;18.082;2024-01-27T09:33:12;3.20;;;1.90;;
17650;SDS011;26663;59.302;18.082;2024-01-27T09:36:18;4.10;;;1.50;;
17650;SDS011;26663;59.302;18.082;2024-01-27T09:39:22;4.43;;;1.60;;
17650;SDS011;26663;59.302;18.082;2024-01-27T09:42:26;4.43;;;1.70;;
17650;SDS011;26663;59.302;18.082;2024-01-27T09:45:31;1.80;;;1.70;;
17650;SDS011;26663;59.302;18.082;2024-01-27T09:48:35;3.43;;;1.43;;
17650;SDS011;26663;59.302;18.082;2024-01-27T09:51:41;2.93;;;1.60;;
17650;SDS011;26663;59.302;18.082;2024-01-27T09:54:45;3.90;;;1.40;;
17650;SDS011;26663;59.302;18.082;2024-01-27T09:57:49;3.77;;;1.57;;
17650;SDS011;26663;59.302;18.082;2024-01-27T10:00:54;3.90;;;1.70;;
17650;SDS011;26663;59.302;18.082;2024-01-27T10:04:00;2.13;;;1.40;;
17650;SDS011;26663;59.302;18.082;2024-01-27T10:07:06;3.07;;;1.60;;
17650;SDS011;26663;59.302;18.082;2024-01-27T10:10:10;7.50;;;2.17;;
17650;SDS011;26663;59.302;18.082;2024-01-27T10:13:16;4.73;;;1.50;;
17650;SDS011;26663;59.302;18.082;2024-01-27T10:16:20;2.63;;;1.80;;
17650;SDS011;26663;59.302;18.082;2024-01-27T10:19:24;2.93;;;1.30;;
17650;SDS011;26663;59.302;18.082;2024-01-27T10:22:36;2.60;;;1.57;;
17650;SDS011;26663;59.302;18.082;2024-01-27T10:25:40;6.57;;;1.90;;
17650;SDS011;26663;59.302;18.082;2024-01-27T10:28:51;6.00;;;1.70;;
17650;SDS011;26663;59.302;18.082;2024-01-27T10:32:06;4.83;;;1.37;;
17650;SDS011;26663;59.302;18.082;2024-01-27T10:35:11;3.97;;;1.37;;
17650;SDS011;26663;59.302;18.082;2024-01-27T10:38:16;3.90;;;1.60;;
17650;SDS011;26663;59.302;18.082;2024-01-27T10:41:21;4.73;;;1.37;;
17650;SDS011;26663;59.302;18.082;2024-01-27T10:44:26;2.87;;;1.50;;
17650;SDS011;26663;59.302;18.082;2024-01-27T10:47:32;3.90;;;1.80;;
17650;SDS011;26663;59.302;18.082;2024-01-27T10:50:37;1.67;;;1.33;;
17650;SDS011;26663;59.302;18.082;2024-01-27T10:53:49;5.10;;;1.60;;
17650;SDS011;26663;59.302;18.082;2024-01-27T10:56:55;3.13;;;1.60;;
17650;SDS011;26663;59.302;18.082;2024-01-27T11:00:02;4.87;;;1.77;;
17650;SDS011;26663;59.302;18.082;2024-01-27T11:03:08;1.60;;;1.50;;
17650;SDS011;26663;59.302;18.082;2024-01-27T11:06:13;4.77;;;1.73;;
17650;SDS011;26663;59.302;18.082;2024-01-27T11:09:19;3.17;;;1.60;;
17650;SDS011;26663;59.302;18.082;2024-01-27T11:12:24;6.03;;;1.73;;
17650;SDS011;26663;59.302;18.082;2024-01-27T11:15:29;8.53;;;2.10;;
17650;SDS011;26663;59.302;18.082;2024-01-27T11:18:34;4.80;;;2.10;;
17650;SDS011;26663;59.302;18.082;2024-01-27T11:21:38;5.80;;;1.83;;
17650;SDS011;26663;59.302;18.082;2024-01-27T11:24:44;4.63;;;1.73;;
17650;SDS011;26663;59.302;18.082;2024-01-27T11:27:48;4.53;;;1.90;;
17650;SDS011;26663;59.302;18.082;2024-01-27T11:30:53;5.37;;;1.70;;
17650;SDS011;26663;59.302;18.082;2024-01-27T11:33:58;2.33;;;1.90;;
17650;SDS011;26663;59.302;18.082;2024-01-27T11:37:09;5.70;;;1.83;;
17650;SDS011;26663;59.302;18.082;2024-01-27T11:40:15;3.70;;;1.50;;
17650;SDS011;26663;59.302;18.082;2024-01-27T11:43:19;4.50;;;1.83;;
17650;SDS011;26663;59.302;18.082;2024-01-27T11:46:23;7.03;;;1.87;;
17650;SDS011;26663;59.302;18.082;2024-01-27T11:49:27;5.70;;;1.60;;
17650;SDS011;26663;59.302;18.082;2024-01-27T11:52:31;5.00;;;1.80;;
17650;SDS011;26663;59.302;18.082;2024-01-27T11:55:37;3.80;;;1.70;;
17650;SDS011;26663;59.302;18.082;2024-01-27T11:58:47;3.50;;;1.50;;
17650;SDS011;26663;59.302;18.082;2024-01-27T12:01:52;5.43;;;1.47;;
17650;SDS011;26663;59.302;18.082;2024-01-27T12:04:56;1.90;;;1.43;;
17650;SDS011;26663;59.302;18.082;2024-01-27T12:08:03;3.30;;;1.30;;
17650;SDS011;26663;59.302;18.082;2024-01-27T12:11:09;6.80;;;2.00;;
17650;SDS011;26663;59.302;18.082;2024-01-27T12:14:26;7.93;;;1.57;;
17650;SDS011;26663;59.302;18.082;2024-01-27T12:17:41;3.10;;;1.60;;
17650;SDS011;26663;59.302;18.082;2024-01-27T12:20:45;2.83;;;1.70;;
17650;SDS011;26663;59.302;18.082;2024-01-27T12:23:51;1.70;;;1.60;;
17650;SDS011;26663;59.302;18.082;2024-01-27T12:26:57;2.40;;;1.63;;
17650;SDS011;26663;59.302;18.082;2024-01-27T12:30:01;3.57;;;1.70;;
17650;SDS011;26663;59.302;18.082;2024-01-27T12:33:09;2.50;;;1.73;;
17650;SDS011;26663;59.302;18.082;2024-01-27T12:36:13;4.30;;;1.50;;
17650;SDS011;26663;59.302;18.082;2024-01-27T12:39:17;6.13;;;2.03;;
17650;SDS011;26663;59.302;18.082;2024-01-27T12:42:22;3.67;;;1.53;;
17650;SDS011;26663;59.302;18.082;2024-01-27T12:45:27;4.17;;;1.33;;
17650;SDS011;26663;59.302;18.082;2024-01-27T12:48:32;5.30;;;1.77;;
17650;SDS011;26663;59.302;18.082;2024-01-27T12:51:36;2.90;;;1.70;;
17650;SDS011;26663;59.302;18.082;2024-01-27T12:54:44;3.20;;;1.90;;
17650;SDS011;26663;59.302;18.082;2024-01-27T12:57:51;4.87;;;1.70;;
17650;SDS011;26663;59.302;18.082;2024-01-27T13:00:55;7.20;;;2.10;;
17650;SDS011;26663;59.302;18.082;2024-01-27T13:03:59;6.33;;;1.60;;
17650;SDS011;26663;59.302;18.082;2024-01-27T13:07:03;3.37;;;1.50;;
17650;SDS011;26663;59.302;18.082;2024-01-27T13:10:08;3.13;;;1.33;;
17650;SDS011;26663;59.302;18.082;2024-01-27T13:13:13;1.67;;;1.57;;
17650;SDS011;26663;59.302;18.082;2024-01-27T13:16:17;3.23;;;1.80;;
17650;SDS011;26663;59.302;18.082;2024-01-27T13:19:21;1.70;;;1.37;;
17650;SDS011;26663;59.302;18.082;2024-01-27T13:22:25;3.97;;;1.70;;
17650;SDS011;26663;59.302;18.082;2024-01-27T13:25:29;4.40;;;1.80;;
17650;SDS011;26663;59.302;18.082;2024-01-27T13:28:35;4.77;;;1.77;;
17650;SDS011;26663;59.302;18.082;2024-01-27T13:31:39;3.47;;;1.90;;
17650;SDS011;26663;59.302;18.082;2024-01-27T13:34:43;5.53;;;1.80;;
17650;SDS011;26663;59.302;18.082;2024-01-27T13:37:47;6.37;;;1.90;;
17650;SDS011;26663;59.302;18.082;2024-01-27T13:40:51;5.33;;;1.77;;
17650;SDS011;26663;59.302;18.082;2024-01-27T13:43:56;3.13;;;1.73;;
17650;SDS011;26663;59.302;18.082;2024-01-27T13:47:00;3.70;;;2.33;;
17650;SDS011;26663;59.302;18.082;2024-01-27T13:50:05;3.47;;;1.87;;
17650;SDS011;26663;59.302;18.082;2024-01-27T13:53:10;5.27;;;3.00;;
17650;SDS011;26663;59.302;18.082;2024-01-27T13:56:14;10.17;;;3.43;;
17650;SDS011;26663;59.302;18.082;2024-01-27T13:59:19;7.70;;;2.80;;
17650;SDS011;26663;59.302;18.082;2024-01-27T14:02:23;4.87;;;2.30;;
17650;SDS011;26663;59.302;18.082;2024-01-27T14:05:27;4.40;;;1.87;;
17650;SDS011;26663;59.302;18.082;2024-01-27T14:08:32;4.60;;;2.37;;
17650;SDS011;26663;59.302;18.082;2024-01-27T14:11:36;4.93;;;2.50;;
17650;SDS011;26663;59.302;18.082;2024-01-27T14:14:41;4.60;;;2.60;;
17650;SDS011;26663;59.302;18.082;2024-01-27T14:17:45;2.50;;;2.00;;
17650;SDS011;26663;59.302;18.082;2024-01-27T14:20:49;4.13;;;2.30;;
17650;SDS011;26663;59.302;18.082;2024-01-27T14:23:53;3.47;;;1.90;;
17650;SDS011;26663;59.302;18.082;2024-01-27T14:27:03;3.17;;;1.90;;
17650;SDS011;26663;59.302;18.082;2024-01-27T14:30:10;4.17;;;1.80;;
17650;SDS011;26663;59.302;18.082;2024-01-27T14:33:15;4.13;;;1.80;;
17650;SDS011;26663;59.302;18.082;2024-01-27T14:36:23;7.57;;;2.07;;
17650;SDS011;26663;59.302;18.082;2024-01-27T14:39:28;4.97;;;2.27;;
17650;SDS011;26663;59.302;18.082;2024-01-27T14:42:33;8.87;;;2.67;;
17650;SDS011;26663;59.302;18.082;2024-01-27T14:45:39;8.37;;;2.80;;
17650;SDS011;26663;59.302;18.082;2024-01-27T14:48:45;13.40;;;3.20;;
17650;SDS011;26663;59.302;18.082;2024-01-27T14:51:49;2.87;;;2.63;;
17650;SDS011;26663;59.302;18.082;2024-01-27T14:54:53;7.47;;;2.40;;
17650;SDS011;26663;59.302;18.082;2024-01-27T14:57:57;3.80;;;2.30;;
17650;SDS011;26663;59.302;18.082;2024-01-27T15:01:02;5.60;;;2.33;;
17650;SDS011;26663;59.302;18.082;2024-01-27T15:04:07;4.10;;;2.37;;
17650;SDS011;26663;59.302;18.082;2024-01-27T15:07:11;5.20;;;2.10;;
17650;SDS011;26663;59.302;18.082;2024-01-27T15:10:20;4.37;;;2.40;;
17650;SDS011;26663;59.302;18.082;2024-01-27T15:13:25;6.87;;;1.80;;
17650;SDS011;26663;59.302;18.082;2024-01-27T15:16:31;5.13;;;2.83;;
17650;SDS011;26663;59.302;18.082;2024-01-27T15:19:36;6.33;;;2.47;;
17650;SDS011;26663;59.302;18.082;2024-01-27T15:22:42;7.87;;;2.60;;
17650;SDS011;26663;59.302;18.082;2024-01-27T15:25:47;5.40;;;2.07;;
17650;SDS011;26663;59.302;18.082;2024-01-27T15:28:51;2.77;;;2.40;;
17650;SDS011;26663;59.302;18.082;2024-01-27T15:31:56;4.00;;;2.40;;
17650;SDS011;26663;59.302;18.082;2024-01-27T15:35:00;4.43;;;2.10;;
17650;SDS011;26663;59.302;18.082;2024-01-27T15:38:04;6.00;;;2.33;;
17650;SDS011;26663;59.302;18.082;2024-01-27T15:41:08;4.43;;;2.20;;
17650;SDS011;26663;59.302;18.082;2024-01-27T15:44:12;4.27;;;2.20;;
17650;SDS011;26663;59.302;18.082;2024-01-27T15:47:18;2.80;;;1.90;;
17650;SDS011;26663;59.302;18.082;2024-01-27T15:50:22;3.70;;;2.30;;
17650;SDS011;26663;59.302;18.082;2024-01-27T15:53:30;3.27;;;2.23;;
17650;SDS011;26663;59.302;18.082;2024-01-27T15:56:34;4.03;;;2.50;;
17650;SDS011;26663;59.302;18.082;2024-01-27T15:59:38;4.83;;;2.60;;
17650;SDS011;26663;59.302;18.082;2024-01-27T16:02:43;2.10;;;1.90;;
17650;SDS011;26663;59.302;18.082;2024-01-27T16:05:47;4.83;;;2.20;;
17650;SDS011;26663;59.302;18.082;2024-01-27T16:08:51;2.53;;;1.87;;
17650;SDS011;26663;59.302;18.082;2024-01-27T16:11:55;4.20;;;2.03;;
17650;SDS011;26663;59.302;18.082;2024-01-27T16:15:00;2.87;;;1.83;;
17650;SDS011;26663;59.302;18.082;2024-01-27T16:18:06;4.03;;;2.13;;
17650;SDS011;26663;59.302;18.082;2024-01-27T16:21:10;4.27;;;1.97;;
17650;SDS011;26663;59.302;18.082;2024-01-27T16:24:14;5.23;;;2.30;;
17650;SDS011;26663;59.302;18.082;2024-01-27T16:27:18;6.87;;;2.30;;
17650;SDS011;26663;59.302;18.082;2024-01-27T16:30:24;5.30;;;2.17;;
17650;SDS011;26663;59.302;18.082;2024-01-27T16:33:31;5.90;;;2.00;;
17650;SDS011;26663;59.302;18.082;2024-01-27T16:36:35;1.80;;;1.70;;
17650;SDS011;26663;59.302;18.082;2024-01-27T16:39:40;6.07;;;2.00;;
17650;SDS011;26663;59.302;18.082;2024-01-27T16:42:44;6.27;;;1.87;;
17650;SDS011;26663;59.302;18.082;2024-01-27T16:45:48;7.43;;;2.13;;
17650;SDS011;26663;59.302;18.082;2024-01-27T16:48:54;2.97;;;1.73;;
17650;SDS011;26663;59.302;18.082;2024-01-27T16:51:59;4.87;;;2.47;;
17650;SDS011;26663;59.302;18.082;2024-01-27T16:55:04;3.60;;;1.90;;
17650;SDS011;26663;59.302;18.082;2024-01-27T16:58:09;4.23;;;2.17;;
17650;SDS011;26663;59.302;18.082;2024-01-27T17:01:12;5.70;;;2.43;;
17650;SDS011;26663;59.302;18.082;2024-01-27T17:04:18;3.77;;;2.10;;
17650;SDS011;26663;59.302;18.082;2024-01-27T17:07:22;3.73;;;2.17;;
17650;SDS011;26663;59.302;18.082;2024-01-27T17:10:26;6.00;;;2.50;;
17650;SDS011;26663;59.302;18.082;2024-01-27T17:13:30;7.50;;;2.80;;
17650;SDS011;26663;59.302;18.082;2024-01-27T17:16:34;4.80;;;2.00;;
17650;SDS011;26663;59.302;18.082;2024-01-27T17:19:40;4.63;;;2.40;;
17650;SDS011;26663;59.302;18.082;2024-01-27T17:22:44;8.57;;;2.70;;
17650;SDS011;26663;59.302;18.082;2024-01-27T17:25:48;9.97;;;2.80;;
17650;SDS011;26663;59.302;18.082;2024-01-27T17:28:52;4.23;;;2.33;;
17650;SDS011;26663;59.302;18.082;2024-01-27T17:31:56;9.80;;;2.90;;
17650;SDS011;26663;59.302;18.082;2024-01-27T17:35:01;7.60;;;2.50;;
17650;SDS011;26663;59.302;18.082;2024-01-27T17:38:06;7.80;;;2.70;;
17650;SDS011;26663;59.302;18.082;2024-01-27T17:41:10;5.40;;;2.97;;
17650;SDS011;26663;59.302;18.082;2024-01-27T17:44:14;10.37;;;2.97;;
17650;SDS011;26663;59.302;18.082;2024-01-27T17:47:18;4.63;;;2.70;;
17650;SDS011;26663;59.302;18.082;2024-01-27T17:50:23;12.47;;;3.70;;
17650;SDS011;26663;59.302;18.082;2024-01-27T17:53:28;7.27;;;2.80;;
17650;SDS011;26663;59.302;18.082;2024-01-27T17:56:32;8.23;;;3.23;;
17650;SDS011;26663;59.302;18.082;2024-01-27T17:59:37;5.03;;;3.17;;
17650;SDS011;26663;59.302;18.082;2024-01-27T18:02:42;6.63;;;3.17;;
17650;SDS011;26663;59.302;18.082;2024-01-27T18:05:47;13.27;;;3.63;;
17650;SDS011;26663;59.302;18.082;2024-01-27T18:08:52;6.20;;;2.90;;
17650;SDS011;26663;59.302;18.082;2024-01-27T18:11:56;5.50;;;3.20;;
17650;SDS011;26663;59.302;18.082;2024-01-27T18:15:00;13.60;;;3.50;;